Terminal Aerodrome Forecast
Issued by NWS

Home | Current Version | Previous Version | Text Only | Print | Product List | Glossary On
Versions: 1 2 3 4 5 6 7 8 9 10 11 12 13 14 15
000
FTUS46 KOTX 160522
TAFCOE
TAF
KCOE 160522Z 1606/1706 VRB04KT P6SM SCT070 BKN150
     FM160900 18005KT P6SM SCT070 OVC150
     FM161300 16006KT P6SM SCT040 BKN070 OVC100
     FM161600 18005KT P6SM VCSH BKN025 OVC050
     FM161900 21008KT P6SM -SHRA BKN025 OVC050
     FM170300 16004KT P6SM BKN040 OVC050
      AMD LTD TO CLD VIS AND WIND=

USA.gov is the U.S. government's official web portal to all federal, state and local government web resources and services.